sensor_id;sensor_type;location;lat;lon;timestamp;temperature;humidity
67870;DHT22;54673;52.262;6.830;2023-06-22T00:02:13;27.00;47.30
67870;DHT22;54673;52.262;6.830;2023-06-22T00:04:39;27.00;47.30
67870;DHT22;54673;52.262;6.830;2023-06-22T00:07:05;27.00;47.50
67870;DHT22;54673;52.262;6.830;2023-06-22T00:09:31;26.90;47.30
67870;DHT22;54673;52.262;6.830;2023-06-22T00:11:57;27.00;47.30
67870;DHT22;54673;52.262;6.830;2023-06-22T00:14:22;26.90;47.30
67870;DHT22;54673;52.262;6.830;2023-06-22T00:16:48;26.90;47.40
67870;DHT22;54673;52.262;6.830;2023-06-22T00:19:15;26.90;47.40
67870;DHT22;54673;52.262;6.830;2023-06-22T00:21:41;27.00;47.50
67870;DHT22;54673;52.262;6.830;2023-06-22T00:24:07;27.00;47.50
67870;DHT22;54673;52.262;6.830;2023-06-22T00:26:33;27.00;47.60
67870;DHT22;54673;52.262;6.830;2023-06-22T00:28:58;27.00;47.50
67870;DHT22;54673;52.262;6.830;2023-06-22T00:31:24;27.00;47.50
67870;DHT22;54673;52.262;6.830;2023-06-22T00:33:49;26.90;47.40
67870;DHT22;54673;52.262;6.830;2023-06-22T00:36:16;27.00;47.60
67870;DHT22;54673;52.262;6.830;2023-06-22T00:38:43;26.90;47.30
67870;DHT22;54673;52.262;6.830;2023-06-22T00:41:09;26.90;47.40
67870;DHT22;54673;52.262;6.830;2023-06-22T00:43:34;26.90;47.40
67870;DHT22;54673;52.262;6.830;2023-06-22T00:46:00;26.90;47.30
67870;DHT22;54673;52.262;6.830;2023-06-22T00:48:26;26.90;47.20
67870;DHT22;54673;52.262;6.830;2023-06-22T00:50:52;26.90;47.10
67870;DHT22;54673;52.262;6.830;2023-06-22T00:53:18;26.90;47.10
67870;DHT22;54673;52.262;6.830;2023-06-22T00:55:45;26.90;47.10
67870;DHT22;54673;52.262;6.830;2023-06-22T00:58:13;26.90;47.10
67870;DHT22;54673;52.262;6.830;2023-06-22T01:00:40;26.90;47.10
67870;DHT22;54673;52.262;6.830;2023-06-22T01:03:06;26.80;47.10
67870;DHT22;54673;52.262;6.830;2023-06-22T01:05:35;26.90;47.00
67870;DHT22;54673;52.262;6.830;2023-06-22T01:10:59;26.90;47.00
67870;DHT22;54673;52.262;6.830;2023-06-22T01:16:33;26.90;47.00
67870;DHT22;54673;52.262;6.830;2023-06-22T01:19:17;26.90;46.90
67870;DHT22;54673;52.262;6.830;2023-06-22T01:21:46;26.80;47.00
67870;DHT22;54673;52.262;6.830;2023-06-22T01:24:32;26.80;47.10
67870;DHT22;54673;52.262;6.830;2023-06-22T01:29:41;26.80;48.00
67870;DHT22;54673;52.262;6.830;2023-06-22T01:32:09;26.80;47.10
67870;DHT22;54673;52.262;6.830;2023-06-22T01:34:37;26.80;47.10
67870;DHT22;54673;52.262;6.830;2023-06-22T01:37:05;26.80;47.10
67870;DHT22;54673;52.262;6.830;2023-06-22T01:39:32;26.70;47.10
67870;DHT22;54673;52.262;6.830;2023-06-22T01:41:58;26.70;47.10
67870;DHT22;54673;52.262;6.830;2023-06-22T01:44:25;26.70;47.20
67870;DHT22;54673;52.262;6.830;2023-06-22T01:46:51;26.70;47.20
67870;DHT22;54673;52.262;6.830;2023-06-22T01:49:18;26.70;47.20
67870;DHT22;54673;52.262;6.830;2023-06-22T01:51:44;26.70;47.10
67870;DHT22;54673;52.262;6.830;2023-06-22T01:54:09;26.70;47.20
67870;DHT22;54673;52.262;6.830;2023-06-22T01:56:35;26.70;47.10
67870;DHT22;54673;52.262;6.830;2023-06-22T01:59:26;26.70;47.10
67870;DHT22;54673;52.262;6.830;2023-06-22T02:02:06;26.70;47.00
67870;DHT22;54673;52.262;6.830;2023-06-22T02:04:57;26.70;47.20
67870;DHT22;54673;52.262;6.830;2023-06-22T02:07:23;26.70;47.20
67870;DHT22;54673;52.262;6.830;2023-06-22T02:09:53;26.70;47.20
67870;DHT22;54673;52.262;6.830;2023-06-22T02:12:23;26.60;47.10
67870;DHT22;54673;52.262;6.830;2023-06-22T02:14:51;26.70;47.10
67870;DHT22;54673;52.262;6.830;2023-06-22T02:17:18;26.70;47.10
67870;DHT22;54673;52.262;6.830;2023-06-22T02:19:43;26.60;47.10
67870;DHT22;54673;52.262;6.830;2023-06-22T02:22:09;26.60;47.10
67870;DHT22;54673;52.262;6.830;2023-06-22T02:24:35;26.60;47.10
67870;DHT22;54673;52.262;6.830;2023-06-22T02:27:01;26.60;47.10
67870;DHT22;54673;52.262;6.830;2023-06-22T02:29:27;26.60;47.10
67870;DHT22;54673;52.262;6.830;2023-06-22T02:31:54;26.60;47.10
67870;DHT22;54673;52.262;6.830;2023-06-22T02:34:21;26.60;47.20
67870;DHT22;54673;52.262;6.830;2023-06-22T02:36:48;26.60;47.10
67870;DHT22;54673;52.262;6.830;2023-06-22T02:39:21;26.60;47.20
67870;DHT22;54673;52.262;6.830;2023-06-22T02:41:49;26.50;47.10
67870;DHT22;54673;52.262;6.830;2023-06-22T02:44:15;26.50;47.00
67870;DHT22;54673;52.262;6.830;2023-06-22T02:46:40;26.50;47.20
67870;DHT22;54673;52.262;6.830;2023-06-22T02:49:06;26.50;47.10
67870;DHT22;54673;52.262;6.830;2023-06-22T02:51:33;26.50;47.00
67870;DHT22;54673;52.262;6.830;2023-06-22T02:53:59;26.50;47.10
67870;DHT22;54673;52.262;6.830;2023-06-22T02:56:26;26.50;47.10
67870;DHT22;54673;52.262;6.830;2023-06-22T02:58:51;26.50;47.20
67870;DHT22;54673;52.262;6.830;2023-06-22T03:01:17;26.40;47.00
67870;DHT22;54673;52.262;6.830;2023-06-22T03:03:48;26.40;47.10
67870;DHT22;54673;52.262;6.830;2023-06-22T03:06:14;26.50;47.30
67870;DHT22;54673;52.262;6.830;2023-06-22T03:08:39;26.40;47.10
67870;DHT22;54673;52.262;6.830;2023-06-22T03:11:07;26.40;47.20
67870;DHT22;54673;52.262;6.830;2023-06-22T03:13:33;26.40;47.10
67870;DHT22;54673;52.262;6.830;2023-06-22T03:15:59;26.40;47.30
67870;DHT22;54673;52.262;6.830;2023-06-22T03:18:24;26.40;47.10
67870;DHT22;54673;52.262;6.830;2023-06-22T03:20:50;26.40;47.20
67870;DHT22;54673;52.262;6.830;2023-06-22T03:23:15;26.40;47.20
67870;DHT22;54673;52.262;6.830;2023-06-22T03:25:42;26.40;47.20
67870;DHT22;54673;52.262;6.830;2023-06-22T03:28:10;26.40;47.30
67870;DHT22;54673;52.262;6.830;2023-06-22T03:30:35;26.30;47.20
67870;DHT22;54673;52.262;6.830;2023-06-22T03:33:01;26.40;47.40
67870;DHT22;54673;52.262;6.830;2023-06-22T03:35:27;26.40;47.40
67870;DHT22;54673;52.262;6.830;2023-06-22T03:37:52;26.40;47.30
67870;DHT22;54673;52.262;6.830;2023-06-22T03:40:18;26.30;47.30
67870;DHT22;54673;52.262;6.830;2023-06-22T03:42:43;26.40;47.40
67870;DHT22;54673;52.262;6.830;2023-06-22T03:45:10;26.40;47.50
67870;DHT22;54673;52.262;6.830;2023-06-22T03:47:35;26.30;47.50
67870;DHT22;54673;52.262;6.830;2023-06-22T03:50:01;26.40;47.60
67870;DHT22;54673;52.262;6.830;2023-06-22T03:52:29;26.30;47.50
67870;DHT22;54673;52.262;6.830;2023-06-22T03:54:55;26.30;47.50
67870;DHT22;54673;52.262;6.830;2023-06-22T03:57:21;26.30;47.60
67870;DHT22;54673;52.262;6.830;2023-06-22T03:59:46;26.30;47.60
67870;DHT22;54673;52.262;6.830;2023-06-22T04:02:12;26.40;47.60
67870;DHT22;54673;52.262;6.830;2023-06-22T04:04:38;26.30;47.50
67870;DHT22;54673;52.262;6.830;2023-06-22T04:07:05;26.30;47.60
67870;DHT22;54673;52.262;6.830;2023-06-22T04:09:30;26.30;47.60
67870;DHT22;54673;52.262;6.830;2023-06-22T04:11:56;26.30;47.70
67870;DHT22;54673;52.262;6.830;2023-06-22T04:14:21;26.30;47.70
67870;DHT22;54673;52.262;6.830;2023-06-22T04:16:47;26.30;47.70
67870;DHT22;54673;52.262;6.830;2023-06-22T04:19:12;26.30;47.80
67870;DHT22;54673;52.262;6.830;2023-06-22T04:21:42;26.30;47.80
67870;DHT22;54673;52.262;6.830;2023-06-22T04:24:08;26.30;47.80
67870;DHT22;54673;52.262;6.830;2023-06-22T04:26:34;26.30;47.80
67870;DHT22;54673;52.262;6.830;2023-06-22T04:29:05;26.30;47.90
67870;DHT22;54673;52.262;6.830;2023-06-22T04:31:34;26.30;47.90
67870;DHT22;54673;52.262;6.830;2023-06-22T04:34:02;26.30;47.80
67870;DHT22;54673;52.262;6.830;2023-06-22T04:36:41;26.30;47.90
67870;DHT22;54673;52.262;6.830;2023-06-22T04:39:08;26.30;48.00
67870;DHT22;54673;52.262;6.830;2023-06-22T04:41:36;26.30;48.00
67870;DHT22;54673;52.262;6.830;2023-06-22T04:44:08;26.30;48.10
67870;DHT22;54673;52.262;6.830;2023-06-22T04:46:34;26.30;48.00
67870;DHT22;54673;52.262;6.830;2023-06-22T04:49:04;26.30;48.10
67870;DHT22;54673;52.262;6.830;2023-06-22T04:51:32;26.30;48.10
67870;DHT22;54673;52.262;6.830;2023-06-22T04:53:57;26.30;48.10
67870;DHT22;54673;52.262;6.830;2023-06-22T04:56:26;26.30;48.10
67870;DHT22;54673;52.262;6.830;2023-06-22T04:58:53;26.30;48.10
67870;DHT22;54673;52.262;6.830;2023-06-22T05:01:23;26.30;48.10
67870;DHT22;54673;52.262;6.830;2023-06-22T05:03:48;26.30;48.20
67870;DHT22;54673;52.262;6.830;2023-06-22T05:06:14;26.30;48.20
67870;DHT22;54673;52.262;6.830;2023-06-22T05:08:40;26.30;48.10
67870;DHT22;54673;52.262;6.830;2023-06-22T05:11:06;26.30;48.20
67870;DHT22;54673;52.262;6.830;2023-06-22T05:13:32;26.30;48.20
67870;DHT22;54673;52.262;6.830;2023-06-22T05:15:58;26.30;48.30
67870;DHT22;54673;52.262;6.830;2023-06-22T05:18:30;26.30;48.30
67870;DHT22;54673;52.262;6.830;2023-06-22T05:20:56;26.30;48.30
67870;DHT22;54673;52.262;6.830;2023-06-22T05:23:22;26.30;48.40
67870;DHT22;54673;52.262;6.830;2023-06-22T05:25:48;26.30;48.40
67870;DHT22;54673;52.262;6.830;2023-06-22T05:28:13;26.40;48.40
67870;DHT22;54673;52.262;6.830;2023-06-22T05:30:39;26.30;48.40
67870;DHT22;54673;52.262;6.830;2023-06-22T05:33:04;26.40;48.30
67870;DHT22;54673;52.262;6.830;2023-06-22T05:35:31;26.40;48.30
67870;DHT22;54673;52.262;6.830;2023-06-22T05:37:56;26.40;48.20
67870;DHT22;54673;52.262;6.830;2023-06-22T05:40:22;26.50;48.40
67870;DHT22;54673;52.262;6.830;2023-06-22T05:42:47;26.40;48.30
67870;DHT22;54673;52.262;6.830;2023-06-22T05:45:13;26.50;48.30
67870;DHT22;54673;52.262;6.830;2023-06-22T05:47:38;26.50;48.30
67870;DHT22;54673;52.262;6.830;2023-06-22T05:50:05;26.50;48.30
67870;DHT22;54673;52.262;6.830;2023-06-22T05:52:32;26.50;48.40
67870;DHT22;54673;52.262;6.830;2023-06-22T05:54:58;26.50;48.30
67870;DHT22;54673;52.262;6.830;2023-06-22T05:57:23;26.50;48.20
67870;DHT22;54673;52.262;6.830;2023-06-22T05:59:49;26.60;48.30
67870;DHT22;54673;52.262;6.830;2023-06-22T06:02:15;26.60;48.20
67870;DHT22;54673;52.262;6.830;2023-06-22T06:04:40;26.60;48.20
67870;DHT22;54673;52.262;6.830;2023-06-22T06:07:06;26.70;48.10
67870;DHT22;54673;52.262;6.830;2023-06-22T06:09:32;26.70;48.20
67870;DHT22;54673;52.262;6.830;2023-06-22T06:11:58;26.70;48.30
67870;DHT22;54673;52.262;6.830;2023-06-22T06:14:23;26.70;48.30
67870;DHT22;54673;52.262;6.830;2023-06-22T06:16:49;25.90;47.80
67870;DHT22;54673;52.262;6.830;2023-06-22T06:19:15;26.60;48.30
67870;DHT22;54673;52.262;6.830;2023-06-22T06:21:40;26.60;48.00
67870;DHT22;54673;52.262;6.830;2023-06-22T06:24:06;26.50;47.50
67870;DHT22;54673;52.262;6.830;2023-06-22T06:26:32;26.50;47.30
67870;DHT22;54673;52.262;6.830;2023-06-22T06:28:59;26.50;47.20
67870;DHT22;54673;52.262;6.830;2023-06-22T06:31:25;26.50;47.20
67870;DHT22;54673;52.262;6.830;2023-06-22T06:33:54;26.50;47.00
67870;DHT22;54673;52.262;6.830;2023-06-22T06:36:20;26.50;46.70
67870;DHT22;54673;52.262;6.830;2023-06-22T06:38:46;26.50;46.60
67870;DHT22;54673;52.262;6.830;2023-06-22T06:41:14;26.50;46.60
67870;DHT22;54673;52.262;6.830;2023-06-22T06:43:40;26.50;46.70
67870;DHT22;54673;52.262;6.830;2023-06-22T06:46:08;26.50;46.60
67870;DHT22;54673;52.262;6.830;2023-06-22T06:48:34;26.60;46.60
67870;DHT22;54673;52.262;6.830;2023-06-22T06:50:59;26.60;46.50
67870;DHT22;54673;52.262;6.830;2023-06-22T06:53:25;26.60;46.40
67870;DHT22;54673;52.262;6.830;2023-06-22T06:55:51;26.60;46.40
67870;DHT22;54673;52.262;6.830;2023-06-22T06:58:16;26.60;46.50
67870;DHT22;54673;52.262;6.830;2023-06-22T07:00:42;26.60;46.40
67870;DHT22;54673;52.262;6.830;2023-06-22T07:03:09;26.70;46.40
67870;DHT22;54673;52.262;6.830;2023-06-22T07:05:34;26.60;46.30
67870;DHT22;54673;52.262;6.830;2023-06-22T07:08:01;26.60;46.30
67870;DHT22;54673;52.262;6.830;2023-06-22T07:10:27;26.50;46.30
67870;DHT22;54673;52.262;6.830;2023-06-22T07:12:53;26.60;46.40
67870;DHT22;54673;52.262;6.830;2023-06-22T07:15:18;26.60;46.40
67870;DHT22;54673;52.262;6.830;2023-06-22T07:17:44;26.60;46.40
67870;DHT22;54673;52.262;6.830;2023-06-22T07:20:10;26.60;46.40
67870;DHT22;54673;52.262;6.830;2023-06-22T07:22:42;26.60;46.60
67870;DHT22;54673;52.262;6.830;2023-06-22T07:25:08;26.70;46.70
67870;DHT22;54673;52.262;6.830;2023-06-22T07:27:43;26.70;46.70
67870;DHT22;54673;52.262;6.830;2023-06-22T07:30:10;26.70;46.80
67870;DHT22;54673;52.262;6.830;2023-06-22T07:32:37;26.70;46.90
67870;DHT22;54673;52.262;6.830;2023-06-22T07:35:03;26.70;46.80
67870;DHT22;54673;52.262;6.830;2023-06-22T07:37:30;26.70;46.70
67870;DHT22;54673;52.262;6.830;2023-06-22T07:39:56;26.70;46.60
67870;DHT22;54673;52.262;6.830;2023-06-22T07:42:27;26.80;46.70
67870;DHT22;54673;52.262;6.830;2023-06-22T07:44:58;26.70;46.60
67870;DHT22;54673;52.262;6.830;2023-06-22T07:47:23;26.70;46.60
67870;DHT22;54673;52.262;6.830;2023-06-22T07:49:58;26.80;46.70
67870;DHT22;54673;52.262;6.830;2023-06-22T07:52:24;26.80;46.80
67870;DHT22;54673;52.262;6.830;2023-06-22T07:54:51;26.80;46.70
67870;DHT22;54673;52.262;6.830;2023-06-22T07:57:16;26.80;46.70
67870;DHT22;54673;52.262;6.830;2023-06-22T07:59:42;26.90;46.90
67870;DHT22;54673;52.262;6.830;2023-06-22T08:02:08;26.90;46.80
67870;DHT22;54673;52.262;6.830;2023-06-22T08:04:34;26.90;47.70
67870;DHT22;54673;52.262;6.830;2023-06-22T08:07:00;26.90;46.70
67870;DHT22;54673;52.262;6.830;2023-06-22T08:09:28;27.00;46.90
67870;DHT22;54673;52.262;6.830;2023-06-22T08:11:54;27.00;46.90
67870;DHT22;54673;52.262;6.830;2023-06-22T08:14:22;27.00;46.80
67870;DHT22;54673;52.262;6.830;2023-06-22T08:16:48;27.00;46.80
67870;DHT22;54673;52.262;6.830;2023-06-22T08:19:14;27.00;46.70
67870;DHT22;54673;52.262;6.830;2023-06-22T08:21:39;27.00;46.70
67870;DHT22;54673;52.262;6.830;2023-06-22T08:24:05;27.00;46.70
67870;DHT22;54673;52.262;6.830;2023-06-22T08:26:32;27.00;46.70
67870;DHT22;54673;52.262;6.830;2023-06-22T08:29:01;27.00;46.70
67870;DHT22;54673;52.262;6.830;2023-06-22T08:31:27;27.00;46.60
67870;DHT22;54673;52.262;6.830;2023-06-22T08:33:53;27.10;46.70
67870;DHT22;54673;52.262;6.830;2023-06-22T08:36:18;27.10;46.70
67870;DHT22;54673;52.262;6.830;2023-06-22T08:38:44;27.00;46.70
67870;DHT22;54673;52.262;6.830;2023-06-22T08:41:10;27.00;46.80
67870;DHT22;54673;52.262;6.830;2023-06-22T08:43:36;27.00;46.80
67870;DHT22;54673;52.262;6.830;2023-06-22T08:46:01;27.10;46.80
67870;DHT22;54673;52.262;6.830;2023-06-22T08:48:28;27.10;46.80
67870;DHT22;54673;52.262;6.830;2023-06-22T08:50:54;27.10;46.80
67870;DHT22;54673;52.262;6.830;2023-06-22T08:53:19;27.10;47.10
67870;DHT22;54673;52.262;6.830;2023-06-22T08:55:45;27.10;47.10
67870;DHT22;54673;52.262;6.830;2023-06-22T08:58:11;27.10;47.20
67870;DHT22;54673;52.262;6.830;2023-06-22T09:00:36;27.00;47.20
67870;DHT22;54673;52.262;6.830;2023-06-22T09:03:02;27.10;47.30
67870;DHT22;54673;52.262;6.830;2023-06-22T09:05:28;27.10;47.30
67870;DHT22;54673;52.262;6.830;2023-06-22T09:07:56;27.10;47.20
67870;DHT22;54673;52.262;6.830;2023-06-22T09:10:21;27.10;47.10
67870;DHT22;54673;52.262;6.830;2023-06-22T09:12:47;27.10;47.00
67870;DHT22;54673;52.262;6.830;2023-06-22T09:15:13;27.00;47.00
67870;DHT22;54673;52.262;6.830;2023-06-22T09:17:38;27.00;47.00
67870;DHT22;54673;52.262;6.830;2023-06-22T09:20:04;27.00;46.90
67870;DHT22;54673;52.262;6.830;2023-06-22T09:22:31;27.00;46.80
67870;DHT22;54673;52.262;6.830;2023-06-22T09:24:57;27.00;46.80
67870;DHT22;54673;52.262;6.830;2023-06-22T09:27:23;27.00;47.00
67870;DHT22;54673;52.262;6.830;2023-06-22T09:29:49;27.00;47.10
67870;DHT22;54673;52.262;6.830;2023-06-22T09:32:15;27.00;47.10
67870;DHT22;54673;52.262;6.830;2023-06-22T09:34:40;27.00;47.10
67870;DHT22;54673;52.262;6.830;2023-06-22T09:37:06;27.00;46.90
67870;DHT22;54673;52.262;6.830;2023-06-22T09:39:32;27.00;47.00
67870;DHT22;54673;52.262;6.830;2023-06-22T09:42:01;27.00;47.00
67870;DHT22;54673;52.262;6.830;2023-06-22T09:44:26;27.00;47.00
67870;DHT22;54673;52.262;6.830;2023-06-22T09:46:52;27.10;47.10
67870;DHT22;54673;52.262;6.830;2023-06-22T09:49:17;27.10;46.90
67870;DHT22;54673;52.262;6.830;2023-06-22T09:51:43;27.10;46.90
67870;DHT22;54673;52.262;6.830;2023-06-22T09:54:09;27.10;47.00
67870;DHT22;54673;52.262;6.830;2023-06-22T09:56:34;27.10;47.10
67870;DHT22;54673;52.262;6.830;2023-06-22T09:59:00;27.10;47.10
67870;DHT22;54673;52.262;6.830;2023-06-22T10:01:25;27.10;47.10
67870;DHT22;54673;52.262;6.830;2023-06-22T10:03:52;27.10;47.10
67870;DHT22;54673;52.262;6.830;2023-06-22T10:06:21;27.10;47.10
67870;DHT22;54673;52.262;6.830;2023-06-22T10:08:46;27.10;47.00
67870;DHT22;54673;52.262;6.830;2023-06-22T10:11:13;27.00;46.90
67870;DHT22;54673;52.262;6.830;2023-06-22T10:13:39;27.00;46.80
67870;DHT22;54673;52.262;6.830;2023-06-22T10:16:05;27.10;46.80
67870;DHT22;54673;52.262;6.830;2023-06-22T10:18:30;27.10;46.90
67870;DHT22;54673;52.262;6.830;2023-06-22T10:20:56;27.10;46.90
67870;DHT22;54673;52.262;6.830;2023-06-22T10:23:22;27.10;47.10
67870;DHT22;54673;52.262;6.830;2023-06-22T10:25:47;27.20;47.10
67870;DHT22;54673;52.262;6.830;2023-06-22T10:28:13;27.20;47.20
67870;DHT22;54673;52.262;6.830;2023-06-22T10:30:40;27.20;47.20
67870;DHT22;54673;52.262;6.830;2023-06-22T10:33:10;27.30;47.70
67870;DHT22;54673;52.262;6.830;2023-06-22T10:35:36;27.20;47.90
67870;DHT22;54673;52.262;6.830;2023-06-22T10:38:03;27.30;48.20
67870;DHT22;54673;52.262;6.830;2023-06-22T10:40:29;27.30;48.30
67870;DHT22;54673;52.262;6.830;2023-06-22T10:42:55;27.40;48.20
67870;DHT22;54673;52.262;6.830;2023-06-22T10:45:21;27.30;47.90
67870;DHT22;54673;52.262;6.830;2023-06-22T10:47:46;27.30;47.70
67870;DHT22;54673;52.262;6.830;2023-06-22T10:50:12;27.30;47.80
67870;DHT22;54673;52.262;6.830;2023-06-22T10:52:38;27.20;47.60
67870;DHT22;54673;52.262;6.830;2023-06-22T10:55:04;27.20;47.50
67870;DHT22;54673;52.262;6.830;2023-06-22T10:57:30;27.20;47.50
67870;DHT22;54673;52.262;6.830;2023-06-22T10:59:55;27.20;47.70
67870;DHT22;54673;52.262;6.830;2023-06-22T11:02:21;27.20;47.60
67870;DHT22;54673;52.262;6.830;2023-06-22T11:04:46;27.20;47.50
67870;DHT22;54673;52.262;6.830;2023-06-22T11:07:13;27.20;47.60
67870;DHT22;54673;52.262;6.830;2023-06-22T11:09:38;27.20;47.30
67870;DHT22;54673;52.262;6.830;2023-06-22T11:12:05;27.20;47.10
67870;DHT22;54673;52.262;6.830;2023-06-22T11:14:31;27.20;47.10
67870;DHT22;54673;52.262;6.830;2023-06-22T11:16:59;27.20;47.40
67870;DHT22;54673;52.262;6.830;2023-06-22T11:19:24;27.20;48.10
67870;DHT22;54673;52.262;6.830;2023-06-22T11:21:50;27.20;48.00
67870;DHT22;54673;52.262;6.830;2023-06-22T11:24:16;27.20;47.80
67870;DHT22;54673;52.262;6.830;2023-06-22T11:26:42;27.20;47.70
67870;DHT22;54673;52.262;6.830;2023-06-22T11:29:08;27.30;48.20
67870;DHT22;54673;52.262;6.830;2023-06-22T11:31:34;27.30;48.10
67870;DHT22;54673;52.262;6.830;2023-06-22T11:34:00;27.20;48.10
67870;DHT22;54673;52.262;6.830;2023-06-22T11:36:26;27.20;47.90
67870;DHT22;54673;52.262;6.830;2023-06-22T11:38:52;27.30;48.10
67870;DHT22;54673;52.262;6.830;2023-06-22T11:41:18;27.30;48.10
67870;DHT22;54673;52.262;6.830;2023-06-22T11:43:44;27.30;48.10
67870;DHT22;54673;52.262;6.830;2023-06-22T11:46:10;27.30;48.10
67870;DHT22;54673;52.262;6.830;2023-06-22T11:48:35;27.30;48.00
67870;DHT22;54673;52.262;6.830;2023-06-22T11:51:02;27.30;48.00
67870;DHT22;54673;52.262;6.830;2023-06-22T11:53:28;27.20;48.20
67870;DHT22;54673;52.262;6.830;2023-06-22T11:55:54;27.20;48.10
67870;DHT22;54673;52.262;6.830;2023-06-22T11:58:20;27.30;48.00
67870;DHT22;54673;52.262;6.830;2023-06-22T12:00:46;27.30;48.10
67870;DHT22;54673;52.262;6.830;2023-06-22T12:03:11;27.20;47.80
67870;DHT22;54673;52.262;6.830;2023-06-22T12:05:38;27.20;47.80
67870;DHT22;54673;52.262;6.830;2023-06-22T12:08:04;27.20;48.00
67870;DHT22;54673;52.262;6.830;2023-06-22T12:10:29;27.30;48.10
67870;DHT22;54673;52.262;6.830;2023-06-22T12:12:55;27.90;48.40
67870;DHT22;54673;52.262;6.830;2023-06-22T12:15:22;27.40;48.00
67870;DHT22;54673;52.262;6.830;2023-06-22T12:17:48;27.40;47.80
67870;DHT22;54673;52.262;6.830;2023-06-22T12:20:14;27.50;48.90
67870;DHT22;54673;52.262;6.830;2023-06-22T12:22:41;27.50;47.90
67870;DHT22;54673;52.262;6.830;2023-06-22T12:25:08;27.50;47.80
67870;DHT22;54673;52.262;6.830;2023-06-22T12:27:34;27.60;47.90
67870;DHT22;54673;52.262;6.830;2023-06-22T12:30:00;27.60;47.90
67870;DHT22;54673;52.262;6.830;2023-06-22T12:32:26;27.60;47.80
67870;DHT22;54673;52.262;6.830;2023-06-22T12:34:52;27.60;47.70
67870;DHT22;54673;52.262;6.830;2023-06-22T12:37:17;27.60;47.70
67870;DHT22;54673;52.262;6.830;2023-06-22T12:39:43;27.60;47.70
67870;DHT22;54673;52.262;6.830;2023-06-22T12:42:09;27.70;47.80
67870;DHT22;54673;52.262;6.830;2023-06-22T12:44:37;27.70;47.70
67870;DHT22;54673;52.262;6.830;2023-06-22T12:47:03;27.70;47.70
67870;DHT22;54673;52.262;6.830;2023-06-22T12:49:29;27.70;47.70
67870;DHT22;54673;52.262;6.830;2023-06-22T12:51:54;27.80;47.80
67870;DHT22;54673;52.262;6.830;2023-06-22T12:54:20;27.80;47.90
67870;DHT22;54673;52.262;6.830;2023-06-22T12:56:46;27.80;47.80
67870;DHT22;54673;52.262;6.830;2023-06-22T12:59:12;27.80;47.70
67870;DHT22;54673;52.262;6.830;2023-06-22T13:01:38;27.80;47.70
67870;DHT22;54673;52.262;6.830;2023-06-22T13:04:03;27.80;48.00
67870;DHT22;54673;52.262;6.830;2023-06-22T13:06:29;27.80;48.10
67870;DHT22;54673;52.262;6.830;2023-06-22T13:08:55;27.80;48.50
67870;DHT22;54673;52.262;6.830;2023-06-22T13:11:20;27.80;48.40
67870;DHT22;54673;52.262;6.830;2023-06-22T13:13:46;27.80;48.80
67870;DHT22;54673;52.262;6.830;2023-06-22T13:16:12;27.90;48.90
67870;DHT22;54673;52.262;6.830;2023-06-22T13:18:38;27.30;48.60
67870;DHT22;54673;52.262;6.830;2023-06-22T13:21:04;28.00;49.10
67870;DHT22;54673;52.262;6.830;2023-06-22T13:23:31;28.00;49.70
67870;DHT22;54673;52.262;6.830;2023-06-22T13:25:58;27.90;49.90
67870;DHT22;54673;52.262;6.830;2023-06-22T13:28:25;27.90;50.20
67870;DHT22;54673;52.262;6.830;2023-06-22T13:30:51;27.90;50.40
67870;DHT22;54673;52.262;6.830;2023-06-22T13:33:17;27.90;50.70
67870;DHT22;54673;52.262;6.830;2023-06-22T13:35:42;27.90;51.20
67870;DHT22;54673;52.262;6.830;2023-06-22T13:38:09;27.70;51.50
67870;DHT22;54673;52.262;6.830;2023-06-22T13:40:35;27.70;51.40
67870;DHT22;54673;52.262;6.830;2023-06-22T13:43:01;27.90;51.40
67870;DHT22;54673;52.262;6.830;2023-06-22T13:45:26;27.90;51.30
67870;DHT22;54673;52.262;6.830;2023-06-22T13:47:52;27.90;51.40
67870;DHT22;54673;52.262;6.830;2023-06-22T13:50:18;28.00;51.60
67870;DHT22;54673;52.262;6.830;2023-06-22T13:52:43;28.00;51.40
67870;DHT22;54673;52.262;6.830;2023-06-22T13:55:09;28.00;51.60
67870;DHT22;54673;52.262;6.830;2023-06-22T13:57:35;28.00;51.90
67870;DHT22;54673;52.262;6.830;2023-06-22T14:00:02;27.90;52.10
67870;DHT22;54673;52.262;6.830;2023-06-22T14:02:29;27.90;52.10
67870;DHT22;54673;52.262;6.830;2023-06-22T14:04:54;27.80;52.30
67870;DHT22;54673;52.262;6.830;2023-06-22T14:07:20;27.80;52.60
67870;DHT22;54673;52.262;6.830;2023-06-22T14:09:46;27.70;52.70
67870;DHT22;54673;52.262;6.830;2023-06-22T14:12:12;27.60;52.80
67870;DHT22;54673;52.262;6.830;2023-06-22T14:14:38;27.60;52.90
67870;DHT22;54673;52.262;6.830;2023-06-22T14:17:04;27.60;53.10
67870;DHT22;54673;52.262;6.830;2023-06-22T14:19:30;27.50;53.20
67870;DHT22;54673;52.262;6.830;2023-06-22T14:21:56;27.50;53.40
67870;DHT22;54673;52.262;6.830;2023-06-22T14:24:22;27.40;53.40
67870;DHT22;54673;52.262;6.830;2023-06-22T14:26:48;27.40;53.50
67870;DHT22;54673;52.262;6.830;2023-06-22T14:29:14;27.30;53.60
67870;DHT22;54673;52.262;6.830;2023-06-22T14:31:39;27.30;53.80
67870;DHT22;54673;52.262;6.830;2023-06-22T14:34:05;27.30;54.00
67870;DHT22;54673;52.262;6.830;2023-06-22T14:36:31;27.30;54.10
67870;DHT22;54673;52.262;6.830;2023-06-22T14:38:57;27.40;54.10
67870;DHT22;54673;52.262;6.830;2023-06-22T14:41:22;27.40;54.00
67870;DHT22;54673;52.262;6.830;2023-06-22T14:43:49;27.40;53.90
67870;DHT22;54673;52.262;6.830;2023-06-22T14:46:16;27.50;53.90
67870;DHT22;54673;52.262;6.830;2023-06-22T14:48:42;27.50;53.90
67870;DHT22;54673;52.262;6.830;2023-06-22T14:51:09;27.50;53.70
67870;DHT22;54673;52.262;6.830;2023-06-22T14:53:35;27.60;53.80
67870;DHT22;54673;52.262;6.830;2023-06-22T14:56:01;27.60;53.80
67870;DHT22;54673;52.262;6.830;2023-06-22T14:58:31;27.60;53.80
67870;DHT22;54673;52.262;6.830;2023-06-22T15:01:04;27.70;53.80
67870;DHT22;54673;52.262;6.830;2023-06-22T15:03:34;27.60;54.00
67870;DHT22;54673;52.262;6.830;2023-06-22T15:06:01;27.60;53.90
67870;DHT22;54673;52.262;6.830;2023-06-22T15:08:27;27.70;54.10
67870;DHT22;54673;52.262;6.830;2023-06-22T15:10:53;27.60;54.00
67870;DHT22;54673;52.262;6.830;2023-06-22T15:13:19;27.60;54.00
67870;DHT22;54673;52.262;6.830;2023-06-22T15:15:48;27.60;54.00
67870;DHT22;54673;52.262;6.830;2023-06-22T15:18:15;27.60;54.00
67870;DHT22;54673;52.262;6.830;2023-06-22T15:20:41;27.60;53.90
67870;DHT22;54673;52.262;6.830;2023-06-22T15:23:10;27.60;53.90
67870;DHT22;54673;52.262;6.830;2023-06-22T15:25:36;27.60;53.90
67870;DHT22;54673;52.262;6.830;2023-06-22T15:28:02;27.60;54.00
67870;DHT22;54673;52.262;6.830;2023-06-22T15:30:28;27.60;53.90
67870;DHT22;54673;52.262;6.830;2023-06-22T15:32:54;27.60;53.80
67870;DHT22;54673;52.262;6.830;2023-06-22T15:35:20;27.60;53.80